sensor_id;sensor_type;location;lat;lon;timestamp;temperature;humidity
25628;DHT22;40915;50.826;4.356;2023-02-01T00:01:12;7.00;99.90
25628;DHT22;40915;50.826;4.356;2023-02-01T00:03:38;7.00;99.90
25628;DHT22;40915;50.826;4.356;2023-02-01T00:06:03;7.00;99.90
25628;DHT22;40915;50.826;4.356;2023-02-01T00:08:29;7.10;99.90
25628;DHT22;40915;50.826;4.356;2023-02-01T00:11:06;7.00;99.90
25628;DHT22;40915;50.826;4.356;2023-02-01T00:13:33;7.00;99.90
25628;DHT22;40915;50.826;4.356;2023-02-01T00:16:12;7.00;99.90
25628;DHT22;40915;50.826;4.356;2023-02-01T00:18:38;7.00;99.90
25628;DHT22;40915;50.826;4.356;2023-02-01T00:21:04;7.00;99.90
25628;DHT22;40915;50.826;4.356;2023-02-01T00:23:35;7.00;99.90
25628;DHT22;40915;50.826;4.356;2023-02-01T00:26:02;7.00;99.90
25628;DHT22;40915;50.826;4.356;2023-02-01T00:28:28;7.00;99.90
25628;DHT22;40915;50.826;4.356;2023-02-01T00:31:01;7.00;99.90
25628;DHT22;40915;50.826;4.356;2023-02-01T00:33:28;7.00;99.90
25628;DHT22;40915;50.826;4.356;2023-02-01T00:35:58;6.90;99.90
25628;DHT22;40915;50.826;4.356;2023-02-01T00:38:25;6.90;99.90
25628;DHT22;40915;50.826;4.356;2023-02-01T00:40:50;6.90;99.90
25628;DHT22;40915;50.826;4.356;2023-02-01T00:43:16;6.90;99.90
25628;DHT22;40915;50.826;4.356;2023-02-01T00:45:42;6.90;99.90
25628;DHT22;40915;50.826;4.356;2023-02-01T00:48:07;7.00;99.90
25628;DHT22;40915;50.826;4.356;2023-02-01T00:50:33;7.00;99.90
25628;DHT22;40915;50.826;4.356;2023-02-01T00:52:58;6.90;99.90
25628;DHT22;40915;50.826;4.356;2023-02-01T00:55:25;7.00;99.90
25628;DHT22;40915;50.826;4.356;2023-02-01T00:57:50;7.00;99.90
25628;DHT22;40915;50.826;4.356;2023-02-01T01:00:16;7.00;99.90
25628;DHT22;40915;50.826;4.356;2023-02-01T01:02:42;7.00;99.90
25628;DHT22;40915;50.826;4.356;2023-02-01T01:05:07;7.00;99.90
25628;DHT22;40915;50.826;4.356;2023-02-01T01:07:33;7.00;99.90
25628;DHT22;40915;50.826;4.356;2023-02-01T01:09:58;7.00;99.90
25628;DHT22;40915;50.826;4.356;2023-02-01T01:12:24;7.00;99.90
25628;DHT22;40915;50.826;4.356;2023-02-01T01:14:50;7.00;99.90
25628;DHT22;40915;50.826;4.356;2023-02-01T01:17:15;7.00;99.90
25628;DHT22;40915;50.826;4.356;2023-02-01T01:19:41;7.00;99.90
25628;DHT22;40915;50.826;4.356;2023-02-01T01:22:06;7.00;99.90
25628;DHT22;40915;50.826;4.356;2023-02-01T01:24:32;7.00;99.90
25628;DHT22;40915;50.826;4.356;2023-02-01T01:26:58;7.00;99.90
25628;DHT22;40915;50.826;4.356;2023-02-01T01:29:23;6.90;99.90
25628;DHT22;40915;50.826;4.356;2023-02-01T01:31:49;7.00;99.90
25628;DHT22;40915;50.826;4.356;2023-02-01T01:34:14;7.00;99.90
25628;DHT22;40915;50.826;4.356;2023-02-01T01:36:40;7.00;99.90
25628;DHT22;40915;50.826;4.356;2023-02-01T01:39:05;7.10;99.90
25628;DHT22;40915;50.826;4.356;2023-02-01T01:41:32;7.00;99.90
25628;DHT22;40915;50.826;4.356;2023-02-01T01:46:29;7.00;99.90
25628;DHT22;40915;50.826;4.356;2023-02-01T01:49:03;7.00;99.90
25628;DHT22;40915;50.826;4.356;2023-02-01T01:51:32;7.00;99.90
25628;DHT22;40915;50.826;4.356;2023-02-01T01:54:09;7.00;99.90
25628;DHT22;40915;50.826;4.356;2023-02-01T01:56:37;7.00;99.90
25628;DHT22;40915;50.826;4.356;2023-02-01T01:59:04;7.00;99.90
25628;DHT22;40915;50.826;4.356;2023-02-01T02:01:30;7.00;99.90
25628;DHT22;40915;50.826;4.356;2023-02-01T02:03:57;6.90;99.90
25628;DHT22;40915;50.826;4.356;2023-02-01T02:07:04;7.00;99.90
25628;DHT22;40915;50.826;4.356;2023-02-01T02:09:30;7.00;99.90
25628;DHT22;40915;50.826;4.356;2023-02-01T02:11:56;7.00;99.90
25628;DHT22;40915;50.826;4.356;2023-02-01T02:14:23;7.00;99.90
25628;DHT22;40915;50.826;4.356;2023-02-01T02:31:23;6.80;99.90
25628;DHT22;40915;50.826;4.356;2023-02-01T02:36:52;6.90;99.90
25628;DHT22;40915;50.826;4.356;2023-02-01T02:44:58;7.10;99.90
25628;DHT22;40915;50.826;4.356;2023-02-01T02:50:49;7.00;99.90
25628;DHT22;40915;50.826;4.356;2023-02-01T02:53:58;7.00;99.90
25628;DHT22;40915;50.826;4.356;2023-02-01T02:56:43;7.00;99.90
25628;DHT22;40915;50.826;4.356;2023-02-01T02:59:28;6.90;99.90
25628;DHT22;40915;50.826;4.356;2023-02-01T03:02:14;6.90;99.90
25628;DHT22;40915;50.826;4.356;2023-02-01T03:04:59;6.90;99.90
25628;DHT22;40915;50.826;4.356;2023-02-01T03:10:57;6.80;99.90
25628;DHT22;40915;50.826;4.356;2023-02-01T03:13:49;6.80;99.90
25628;DHT22;40915;50.826;4.356;2023-02-01T03:16:09;6.80;99.90
25628;DHT22;40915;50.826;4.356;2023-02-01T03:21:25;6.80;99.90
25628;DHT22;40915;50.826;4.356;2023-02-01T03:23:53;6.80;99.90
25628;DHT22;40915;50.826;4.356;2023-02-01T03:26:22;6.80;99.90
25628;DHT22;40915;50.826;4.356;2023-02-01T03:28:57;6.70;99.90
25628;DHT22;40915;50.826;4.356;2023-02-01T03:31:24;6.70;99.90
25628;DHT22;40915;50.826;4.356;2023-02-01T03:33:50;6.70;99.90
25628;DHT22;40915;50.826;4.356;2023-02-01T03:36:40;6.70;99.90
25628;DHT22;40915;50.826;4.356;2023-02-01T03:39:21;6.60;99.90
25628;DHT22;40915;50.826;4.356;2023-02-01T03:41:53;6.60;99.90
25628;DHT22;40915;50.826;4.356;2023-02-01T03:44:31;6.60;99.90
25628;DHT22;40915;50.826;4.356;2023-02-01T03:47:16;6.60;99.90
25628;DHT22;40915;50.826;4.356;2023-02-01T03:49:52;6.60;99.90
25628;DHT22;40915;50.826;4.356;2023-02-01T03:52:42;6.60;99.90
25628;DHT22;40915;50.826;4.356;2023-02-01T03:55:08;6.50;99.90
25628;DHT22;40915;50.826;4.356;2023-02-01T03:57:38;6.50;99.90
25628;DHT22;40915;50.826;4.356;2023-02-01T04:00:16;6.50;99.90
25628;DHT22;40915;50.826;4.356;2023-02-01T04:02:42;6.50;99.90
25628;DHT22;40915;50.826;4.356;2023-02-01T04:05:08;6.40;99.90
25628;DHT22;40915;50.826;4.356;2023-02-01T04:07:34;6.40;99.90
25628;DHT22;40915;50.826;4.356;2023-02-01T04:09:59;6.40;99.90
25628;DHT22;40915;50.826;4.356;2023-02-01T04:12:25;6.40;99.90
25628;DHT22;40915;50.826;4.356;2023-02-01T04:14:51;6.30;99.90
25628;DHT22;40915;50.826;4.356;2023-02-01T04:17:16;6.30;99.90
25628;DHT22;40915;50.826;4.356;2023-02-01T04:19:42;6.20;99.90
25628;DHT22;40915;50.826;4.356;2023-02-01T04:22:07;6.20;99.90
25628;DHT22;40915;50.826;4.356;2023-02-01T04:24:33;6.20;99.90
25628;DHT22;40915;50.826;4.356;2023-02-01T04:26:58;6.10;99.90
25628;DHT22;40915;50.826;4.356;2023-02-01T04:29:24;6.10;99.90
25628;DHT22;40915;50.826;4.356;2023-02-01T04:31:50;6.10;99.90
25628;DHT22;40915;50.826;4.356;2023-02-01T04:34:15;6.10;99.90
25628;DHT22;40915;50.826;4.356;2023-02-01T04:36:41;6.00;99.90
25628;DHT22;40915;50.826;4.356;2023-02-01T04:39:08;6.00;99.90
25628;DHT22;40915;50.826;4.356;2023-02-01T04:41:34;5.90;99.90
25628;DHT22;40915;50.826;4.356;2023-02-01T04:43:59;5.90;99.90
25628;DHT22;40915;50.826;4.356;2023-02-01T04:46:25;5.90;99.90
25628;DHT22;40915;50.826;4.356;2023-02-01T04:48:50;5.80;99.90
25628;DHT22;40915;50.826;4.356;2023-02-01T04:51:16;5.90;99.90
25628;DHT22;40915;50.826;4.356;2023-02-01T04:53:43;5.90;99.90
25628;DHT22;40915;50.826;4.356;2023-02-01T04:56:09;5.80;99.90
25628;DHT22;40915;50.826;4.356;2023-02-01T04:58:34;5.70;99.90
25628;DHT22;40915;50.826;4.356;2023-02-01T05:01:03;5.70;99.90
25628;DHT22;40915;50.826;4.356;2023-02-01T08:23:48;5.70;99.90
25628;DHT22;40915;50.826;4.356;2023-02-01T08:26:19;5.70;99.90
25628;DHT22;40915;50.826;4.356;2023-02-01T08:28:51;5.70;99.90
25628;DHT22;40915;50.826;4.356;2023-02-01T08:31:19;5.70;99.90
25628;DHT22;40915;50.826;4.356;2023-02-01T08:33:49;5.70;99.90
25628;DHT22;40915;50.826;4.356;2023-02-01T08:36:15;5.60;99.90
25628;DHT22;40915;50.826;4.356;2023-02-01T08:38:41;5.60;99.90
25628;DHT22;40915;50.826;4.356;2023-02-01T08:41:15;5.70;99.90
25628;DHT22;40915;50.826;4.356;2023-02-01T08:43:42;5.80;99.90
25628;DHT22;40915;50.826;4.356;2023-02-01T08:46:08;5.80;99.90
25628;DHT22;40915;50.826;4.356;2023-02-01T08:48:34;5.80;99.90
25628;DHT22;40915;50.826;4.356;2023-02-01T08:51:12;5.90;99.90
25628;DHT22;40915;50.826;4.356;2023-02-01T08:53:39;6.00;99.90
25628;DHT22;40915;50.826;4.356;2023-02-01T08:56:07;6.00;99.90
25628;DHT22;40915;50.826;4.356;2023-02-01T08:58:33;6.00;99.90
25628;DHT22;40915;50.826;4.356;2023-02-01T09:01:06;6.10;99.90
25628;DHT22;40915;50.826;4.356;2023-02-01T09:03:32;6.00;99.90
25628;DHT22;40915;50.826;4.356;2023-02-01T09:06:02;6.10;99.90
25628;DHT22;40915;50.826;4.356;2023-02-01T09:08:28;6.10;99.90
25628;DHT22;40915;50.826;4.356;2023-02-01T09:10:57;6.10;99.90
25628;DHT22;40915;50.826;4.356;2023-02-01T09:13:23;6.20;99.90
25628;DHT22;40915;50.826;4.356;2023-02-01T09:15:50;6.20;99.90
25628;DHT22;40915;50.826;4.356;2023-02-01T09:18:16;6.40;99.90
25628;DHT22;40915;50.826;4.356;2023-02-01T09:20:42;6.40;99.90
25628;DHT22;40915;50.826;4.356;2023-02-01T09:23:07;6.40;99.90
25628;DHT22;40915;50.826;4.356;2023-02-01T09:25:33;6.50;99.90
25628;DHT22;40915;50.826;4.356;2023-02-01T09:27:58;6.50;99.90
25628;DHT22;40915;50.826;4.356;2023-02-01T09:30:24;6.60;99.90
25628;DHT22;40915;50.826;4.356;2023-02-01T09:32:49;6.70;99.90
25628;DHT22;40915;50.826;4.356;2023-02-01T09:35:15;6.70;99.90
25628;DHT22;40915;50.826;4.356;2023-02-01T09:37:40;6.80;99.90
25628;DHT22;40915;50.826;4.356;2023-02-01T09:40:08;6.80;99.90
25628;DHT22;40915;50.826;4.356;2023-02-01T09:42:51;6.80;99.90
25628;DHT22;40915;50.826;4.356;2023-02-01T09:48:15;6.90;99.90
25628;DHT22;40915;50.826;4.356;2023-02-01T09:50:45;7.00;99.90
25628;DHT22;40915;50.826;4.356;2023-02-01T09:55:53;7.00;99.90
25628;DHT22;40915;50.826;4.356;2023-02-01T09:58:43;7.20;99.90
25628;DHT22;40915;50.826;4.356;2023-02-01T10:01:19;7.20;99.90
25628;DHT22;40915;50.826;4.356;2023-02-01T10:03:45;7.20;99.90
25628;DHT22;40915;50.826;4.356;2023-02-01T10:06:20;7.20;99.90
25628;DHT22;40915;50.826;4.356;2023-02-01T10:14:35;7.40;99.90
25628;DHT22;40915;50.826;4.356;2023-02-01T10:24:53;7.80;99.90
25628;DHT22;40915;50.826;4.356;2023-02-01T10:27:27;7.90;99.90
25628;DHT22;40915;50.826;4.356;2023-02-01T10:29:58;7.90;99.90
25628;DHT22;40915;50.826;4.356;2023-02-01T10:32:33;7.90;99.90
25628;DHT22;40915;50.826;4.356;2023-02-01T10:35:13;7.90;99.90
25628;DHT22;40915;50.826;4.356;2023-02-01T10:37:42;7.90;99.90
25628;DHT22;40915;50.826;4.356;2023-02-01T10:40:37;7.90;99.90
25628;DHT22;40915;50.826;4.356;2023-02-01T10:43:03;8.00;99.90
25628;DHT22;40915;50.826;4.356;2023-02-01T10:45:30;8.00;99.90
25628;DHT22;40915;50.826;4.356;2023-02-01T10:47:59;8.10;99.90
25628;DHT22;40915;50.826;4.356;2023-02-01T10:50:44;8.10;99.90
25628;DHT22;40915;50.826;4.356;2023-02-01T10:53:17;8.20;99.90
25628;DHT22;40915;50.826;4.356;2023-02-01T10:55:48;8.20;99.90
25628;DHT22;40915;50.826;4.356;2023-02-01T10:58:29;8.30;99.90
25628;DHT22;40915;50.826;4.356;2023-02-01T11:01:07;8.50;99.90
25628;DHT22;40915;50.826;4.356;2023-02-01T11:03:43;8.50;99.90
25628;DHT22;40915;50.826;4.356;2023-02-01T11:08:58;8.70;99.90
25628;DHT22;40915;50.826;4.356;2023-02-01T11:11:25;8.80;99.90
25628;DHT22;40915;50.826;4.356;2023-02-01T11:14:10;8.80;99.90
25628;DHT22;40915;50.826;4.356;2023-02-01T11:16:38;8.80;99.90
25628;DHT22;40915;50.826;4.356;2023-02-01T11:19:05;8.80;99.90
25628;DHT22;40915;50.826;4.356;2023-02-01T11:21:32;8.90;99.90
25628;DHT22;40915;50.826;4.356;2023-02-01T11:24:05;8.90;99.90
25628;DHT22;40915;50.826;4.356;2023-02-01T11:26:39;9.00;99.90
25628;DHT22;40915;50.826;4.356;2023-02-01T11:29:12;9.00;99.90
25628;DHT22;40915;50.826;4.356;2023-02-01T11:31:39;9.10;99.90
25628;DHT22;40915;50.826;4.356;2023-02-01T11:34:17;9.20;99.90
25628;DHT22;40915;50.826;4.356;2023-02-01T11:36:46;9.20;99.90
25628;DHT22;40915;50.826;4.356;2023-02-01T11:41:43;9.30;99.90
25628;DHT22;40915;50.826;4.356;2023-02-01T11:44:36;9.20;99.90
25628;DHT22;40915;50.826;4.356;2023-02-01T11:47:27;9.20;99.90
25628;DHT22;40915;50.826;4.356;2023-02-01T11:49:55;9.20;99.90
25628;DHT22;40915;50.826;4.356;2023-02-01T11:58:02;9.00;99.90
25628;DHT22;40915;50.826;4.356;2023-02-01T12:00:59;9.00;99.90
25628;DHT22;40915;50.826;4.356;2023-02-01T12:03:47;9.10;99.90
25628;DHT22;40915;50.826;4.356;2023-02-01T12:14:43;9.30;99.90
25628;DHT22;40915;50.826;4.356;2023-02-01T12:20:18;9.30;99.90
25628;DHT22;40915;50.826;4.356;2023-02-01T12:25:26;9.30;99.90
25628;DHT22;40915;50.826;4.356;2023-02-01T12:36:38;9.80;99.90
25628;DHT22;40915;50.826;4.356;2023-02-01T12:47:07;10.40;99.90
25628;DHT22;40915;50.826;4.356;2023-02-01T12:49:46;10.40;99.90
25628;DHT22;40915;50.826;4.356;2023-02-01T12:52:19;10.50;99.90
25628;DHT22;40915;50.826;4.356;2023-02-01T12:55:13;10.50;99.90
25628;DHT22;40915;50.826;4.356;2023-02-01T12:57:45;10.40;99.90
25628;DHT22;40915;50.826;4.356;2023-02-01T13:05:45;10.50;99.90
25628;DHT22;40915;50.826;4.356;2023-02-01T13:08:16;10.60;99.90
25628;DHT22;40915;50.826;4.356;2023-02-01T13:10:48;10.60;99.90
25628;DHT22;40915;50.826;4.356;2023-02-01T13:16:25;10.90;99.90
25628;DHT22;40915;50.826;4.356;2023-02-01T13:19:00;11.00;99.90
25628;DHT22;40915;50.826;4.356;2023-02-01T13:21:32;11.00;99.90
25628;DHT22;40915;50.826;4.356;2023-02-01T13:23:59;11.10;99.90
25628;DHT22;40915;50.826;4.356;2023-02-01T13:26:25;11.10;99.90
25628;DHT22;40915;50.826;4.356;2023-02-01T13:28:56;11.00;99.90
25628;DHT22;40915;50.826;4.356;2023-02-01T13:42:16;10.80;99.90
25628;DHT22;40915;50.826;4.356;2023-02-01T13:44:59;10.90;99.90
25628;DHT22;40915;50.826;4.356;2023-02-01T13:47:40;10.80;99.90
25628;DHT22;40915;50.826;4.356;2023-02-01T13:53:03;10.80;99.90
25628;DHT22;40915;50.826;4.356;2023-02-01T13:55:38;10.80;99.90
25628;DHT22;40915;50.826;4.356;2023-02-01T13:58:19;10.60;99.90
25628;DHT22;40915;50.826;4.356;2023-02-01T14:00:47;10.70;99.90
25628;DHT22;40915;50.826;4.356;2023-02-01T14:03:18;10.70;99.90
25628;DHT22;40915;50.826;4.356;2023-02-01T14:08:14;10.90;99.90
25628;DHT22;40915;50.826;4.356;2023-02-01T14:13:32;11.00;99.90
25628;DHT22;40915;50.826;4.356;2023-02-01T14:24:01;10.90;99.90
25628;DHT22;40915;50.826;4.356;2023-02-01T14:26:46;10.90;99.90
25628;DHT22;40915;50.826;4.356;2023-02-01T14:31:47;10.80;99.90
25628;DHT22;40915;50.826;4.356;2023-02-01T14:34:18;10.80;99.90
25628;DHT22;40915;50.826;4.356;2023-02-01T14:36:50;10.70;99.90
25628;DHT22;40915;50.826;4.356;2023-02-01T14:42:25;10.60;99.90
25628;DHT22;40915;50.826;4.356;2023-02-01T14:44:54;10.60;99.90
25628;DHT22;40915;50.826;4.356;2023-02-01T14:52:40;10.50;99.90
25628;DHT22;40915;50.826;4.356;2023-02-01T14:55:19;10.30;99.90
25628;DHT22;40915;50.826;4.356;2023-02-01T14:57:49;10.30;99.90
25628;DHT22;40915;50.826;4.356;2023-02-01T15:00:23;10.30;99.90
25628;DHT22;40915;50.826;4.356;2023-02-01T15:02:50;10.30;99.90
25628;DHT22;40915;50.826;4.356;2023-02-01T15:05:29;10.20;99.90
25628;DHT22;40915;50.826;4.356;2023-02-01T15:07:58;10.20;99.90
25628;DHT22;40915;50.826;4.356;2023-02-01T15:10:26;10.20;99.90
25628;DHT22;40915;50.826;4.356;2023-02-01T15:12:51;10.20;99.90
25628;DHT22;40915;50.826;4.356;2023-02-01T15:15:22;10.10;99.90
25628;DHT22;40915;50.826;4.356;2023-02-01T15:17:58;10.10;99.90
25628;DHT22;40915;50.826;4.356;2023-02-01T15:20:31;10.10;99.90
25628;DHT22;40915;50.826;4.356;2023-02-01T15:23:00;10.10;99.90
25628;DHT22;40915;50.826;4.356;2023-02-01T15:25:28;10.10;99.90
25628;DHT22;40915;50.826;4.356;2023-02-01T15:27:56;10.00;99.90
25628;DHT22;40915;50.826;4.356;2023-02-01T15:30:28;9.90;99.90
25628;DHT22;40915;50.826;4.356;2023-02-01T15:35:41;9.80;99.90
25628;DHT22;40915;50.826;4.356;2023-02-01T15:40:59;9.70;99.90
25628;DHT22;40915;50.826;4.356;2023-02-01T15:43:26;9.60;99.90
25628;DHT22;40915;50.826;4.356;2023-02-01T15:45:56;9.60;99.90
25628;DHT22;40915;50.826;4.356;2023-02-01T15:48:24;9.70;99.90
25628;DHT22;40915;50.826;4.356;2023-02-01T15:50:52;9.70;99.90
25628;DHT22;40915;50.826;4.356;2023-02-01T15:53:23;9.70;99.90
25628;DHT22;40915;50.826;4.356;2023-02-01T15:55:55;9.60;99.90
25628;DHT22;40915;50.826;4.356;2023-02-01T15:58:23;9.60;99.90
25628;DHT22;40915;50.826;4.356;2023-02-01T16:01:01;9.50;99.90
25628;DHT22;40915;50.826;4.356;2023-02-01T16:03:38;9.60;99.90
25628;DHT22;40915;50.826;4.356;2023-02-01T16:06:25;9.50;99.90
25628;DHT22;40915;50.826;4.356;2023-02-01T16:11:41;9.50;99.90
25628;DHT22;40915;50.826;4.356;2023-02-01T16:14:07;9.50;99.90
25628;DHT22;40915;50.826;4.356;2023-02-01T16:16:32;9.40;99.90
25628;DHT22;40915;50.826;4.356;2023-02-01T16:18:58;9.40;99.90
25628;DHT22;40915;50.826;4.356;2023-02-01T16:21:24;9.40;99.90
25628;DHT22;40915;50.826;4.356;2023-02-01T16:23:52;9.30;99.90
25628;DHT22;40915;50.826;4.356;2023-02-01T16:26:19;9.30;99.90
25628;DHT22;40915;50.826;4.356;2023-02-01T16:28:45;9.40;99.90
25628;DHT22;40915;50.826;4.356;2023-02-01T16:31:16;9.40;99.90
25628;DHT22;40915;50.826;4.356;2023-02-01T16:33:51;9.40;99.90
25628;DHT22;40915;50.826;4.356;2023-02-01T16:36:17;9.30;99.90
25628;DHT22;40915;50.826;4.356;2023-02-01T16:38:44;9.40;99.90
25628;DHT22;40915;50.826;4.356;2023-02-01T16:41:16;9.30;99.90
25628;DHT22;40915;50.826;4.356;2023-02-01T16:43:43;9.40;99.90
25628;DHT22;40915;50.826;4.356;2023-02-01T16:46:15;9.30;99.90
25628;DHT22;40915;50.826;4.356;2023-02-01T16:48:50;9.30;99.90
25628;DHT22;40915;50.826;4.356;2023-02-01T16:51:16;9.40;99.90
25628;DHT22;40915;50.826;4.356;2023-02-01T16:53:43;9.30;99.90
25628;DHT22;40915;50.826;4.356;2023-02-01T16:56:18;9.30;99.90
25628;DHT22;40915;50.826;4.356;2023-02-01T16:58:44;9.30;99.90
25628;DHT22;40915;50.826;4.356;2023-02-01T17:01:12;9.20;99.90
25628;DHT22;40915;50.826;4.356;2023-02-01T17:03:39;9.20;99.90
25628;DHT22;40915;50.826;4.356;2023-02-01T17:06:06;9.20;99.90
25628;DHT22;40915;50.826;4.356;2023-02-01T17:08:38;9.20;99.90
25628;DHT22;40915;50.826;4.356;2023-02-01T17:11:05;9.20;99.90
25628;DHT22;40915;50.826;4.356;2023-02-01T17:13:32;9.20;99.90
25628;DHT22;40915;50.826;4.356;2023-02-01T17:16:05;9.20;99.90
25628;DHT22;40915;50.826;4.356;2023-02-01T17:18:34;9.10;99.90
25628;DHT22;40915;50.826;4.356;2023-02-01T17:21:02;9.20;99.90
25628;DHT22;40915;50.826;4.356;2023-02-01T17:23:29;9.20;99.90
25628;DHT22;40915;50.826;4.356;2023-02-01T17:25:55;9.20;99.90
25628;DHT22;40915;50.826;4.356;2023-02-01T17:28:21;9.20;99.90
25628;DHT22;40915;50.826;4.356;2023-02-01T17:30:47;9.20;99.90
25628;DHT22;40915;50.826;4.356;2023-02-01T17:35:47;9.10;99.90
25628;DHT22;40915;50.826;4.356;2023-02-01T17:38:13;9.10;99.90
25628;DHT22;40915;50.826;4.356;2023-02-01T17:40:39;9.00;99.90
25628;DHT22;40915;50.826;4.356;2023-02-01T17:43:04;9.00;99.90
25628;DHT22;40915;50.826;4.356;2023-02-01T17:45:34;9.00;99.90
25628;DHT22;40915;50.826;4.356;2023-02-01T17:48:02;9.00;99.90
25628;DHT22;40915;50.826;4.356;2023-02-01T17:50:30;8.90;99.90
25628;DHT22;40915;50.826;4.356;2023-02-01T17:52:56;9.00;99.90
25628;DHT22;40915;50.826;4.356;2023-02-01T17:55:24;9.00;99.90
25628;DHT22;40915;50.826;4.356;2023-02-01T17:57:50;8.90;99.90
25628;DHT22;40915;50.826;4.356;2023-02-01T18:00:17;8.90;99.90
25628;DHT22;40915;50.826;4.356;2023-02-01T18:02:43;9.00;99.90
25628;DHT22;40915;50.826;4.356;2023-02-01T18:05:18;8.90;99.90
25628;DHT22;40915;50.826;4.356;2023-02-01T18:07:45;8.90;99.90
25628;DHT22;40915;50.826;4.356;2023-02-01T18:10:11;8.90;99.90
25628;DHT22;40915;50.826;4.356;2023-02-01T18:12:37;8.90;99.90
25628;DHT22;40915;50.826;4.356;2023-02-01T18:15:17;9.00;99.90
25628;DHT22;40915;50.826;4.356;2023-02-01T18:17:43;9.00;99.90
25628;DHT22;40915;50.826;4.356;2023-02-01T18:20:14;9.00;99.90
25628;DHT22;40915;50.826;4.356;2023-02-01T18:22:40;8.90;99.90
25628;DHT22;40915;50.826;4.356;2023-02-01T18:25:20;9.00;99.90
25628;DHT22;40915;50.826;4.356;2023-02-01T18:27:47;8.90;99.90
25628;DHT22;40915;50.826;4.356;2023-02-01T18:30:13;9.00;99.90
25628;DHT22;40915;50.826;4.356;2023-02-01T18:32:40;8.90;99.90
25628;DHT22;40915;50.826;4.356;2023-02-01T18:35:28;9.00;99.90
25628;DHT22;40915;50.826;4.356;2023-02-01T18:37:55;8.90;99.90
25628;DHT22;40915;50.826;4.356;2023-02-01T18:40:24;8.90;99.90
25628;DHT22;40915;50.826;4.356;2023-02-01T18:42:50;9.00;99.90
25628;DHT22;40915;50.826;4.356;2023-02-01T18:45:35;8.90;99.90
25628;DHT22;40915;50.826;4.356;2023-02-01T18:48:02;8.90;99.90
25628;DHT22;40915;50.826;4.356;2023-02-01T18:50:30;8.90;99.90
25628;DHT22;40915;50.826;4.356;2023-02-01T18:52:57;9.00;99.90
25628;DHT22;40915;50.826;4.356;2023-02-01T18:55:24;8.90;99.90
25628;DHT22;40915;50.826;4.356;2023-02-01T18:57:50;8.90;99.90
25628;DHT22;40915;50.826;4.356;2023-02-01T19:00:17;8.90;99.90
25628;DHT22;40915;50.826;4.356;2023-02-01T19:02:43;8.90;99.90
25628;DHT22;40915;50.826;4.356;2023-02-01T19:05:10;8.80;99.90
25628;DHT22;40915;50.826;4.356;2023-02-01T19:07:36;8.80;99.90
25628;DHT22;40915;50.826;4.356;2023-02-01T19:10:03;8.80;99.90
25628;DHT22;40915;50.826;4.356;2023-02-01T19:12:31;8.80;99.90
25628;DHT22;40915;50.826;4.356;2023-02-01T19:14:58;8.80;99.90
25628;DHT22;40915;50.826;4.356;2023-02-01T19:17:24;8.80;99.90
25628;DHT22;40915;50.826;4.356;2023-02-01T19:19:53;8.80;99.90
25628;DHT22;40915;50.826;4.356;2023-02-01T19:22:18;8.80;99.90
25628;DHT22;40915;50.826;4.356;2023-02-01T19:24:44;8.80;99.90
25628;DHT22;40915;50.826;4.356;2023-02-01T19:27:10;8.80;99.90
25628;DHT22;40915;50.826;4.356;2023-02-01T19:29:36;8.80;99.90
25628;DHT22;40915;50.826;4.356;2023-02-01T19:32:03;8.80;99.90
25628;DHT22;40915;50.826;4.356;2023-02-01T19:34:29;8.80;99.90
25628;DHT22;40915;50.826;4.356;2023-02-01T19:36:54;8.80;99.90
25628;DHT22;40915;50.826;4.356;2023-02-01T19:39:21;8.80;99.90
25628;DHT22;40915;50.826;4.356;2023-02-01T19:41:49;8.70;99.90
25628;DHT22;40915;50.826;4.356;2023-02-01T19:44:15;8.70;99.90
25628;DHT22;40915;50.826;4.356;2023-02-01T19:46:41;8.80;99.90
25628;DHT22;40915;50.826;4.356;2023-02-01T19:49:06;8.70;99.90
25628;DHT22;40915;50.826;4.356;2023-02-01T19:51:37;8.70;99.90
25628;DHT22;40915;50.826;4.356;2023-02-01T19:54:05;8.70;99.90
25628;DHT22;40915;50.826;4.356;2023-02-01T19:56:31;8.70;99.90
25628;DHT22;40915;50.826;4.356;2023-02-01T19:58:56;8.70;99.90
25628;DHT22;40915;50.826;4.356;2023-02-01T20:01:22;8.70;99.90
25628;DHT22;40915;50.826;4.356;2023-02-01T20:03:48;8.70;99.90
25628;DHT22;40915;50.826;4.356;2023-02-01T20:06:14;8.80;99.90
25628;DHT22;40915;50.826;4.356;2023-02-01T20:08:39;8.70;99.90
25628;DHT22;40915;50.826;4.356;2023-02-01T20:11:06;8.70;99.90
25628;DHT22;40915;50.826;4.356;2023-02-01T20:13:32;8.70;99.90
25628;DHT22;40915;50.826;4.356;2023-02-01T20:15:59;8.70;99.90
25628;DHT22;40915;50.826;4.356;2023-02-01T20:18:25;8.70;99.90
25628;DHT22;40915;50.826;4.356;2023-02-01T20:20:58;8.70;99.90
25628;DHT22;40915;50.826;4.356;2023-02-01T20:23:24;8.70;99.90
25628;DHT22;40915;50.826;4.356;2023-02-01T20:25:50;8.70;99.90
25628;DHT22;40915;50.826;4.356;2023-02-01T20:28:15;8.70;99.90
25628;DHT22;40915;50.826;4.356;2023-02-01T20:30:45;8.70;99.90
25628;DHT22;40915;50.826;4.356;2023-02-01T20:33:11;8.70;99.90
25628;DHT22;40915;50.826;4.356;2023-02-01T20:35:36;8.60;99.90
25628;DHT22;40915;50.826;4.356;2023-02-01T20:38:02;8.70;99.90
25628;DHT22;40915;50.826;4.356;2023-02-01T20:40:28;8.70;99.90
25628;DHT22;40915;50.826;4.356;2023-02-01T20:42:54;8.70;99.90
25628;DHT22;40915;50.826;4.356;2023-02-01T20:45:21;8.70;99.90
25628;DHT22;40915;50.826;4.356;2023-02-01T20:47:50;8.70;99.90
25628;DHT22;40915;50.826;4.356;2023-02-01T20:50:17;8.60;99.90
25628;DHT22;40915;50.826;4.356;2023-02-01T20:52:43;8.60;99.90
25628;DHT22;40915;50.826;4.356;2023-02-01T20:55:09;8.70;99.90
25628;DHT22;40915;50.826;4.356;2023-02-01T20:57:34;8.70;99.90
25628;DHT22;40915;50.826;4.356;2023-02-01T21:00:00;8.70;99.90
25628;DHT22;40915;50.826;4.356;2023-02-01T21:02:25;8.70;99.90
25628;DHT22;40915;50.826;4.356;2023-02-01T21:04:51;8.70;99.90
25628;DHT22;40915;50.826;4.356;2023-02-01T21:07:17;8.70;99.90
25628;DHT22;40915;50.826;4.356;2023-02-01T21:09:42;8.70;99.90
25628;DHT22;40915;50.826;4.356;2023-02-01T21:12:09;8.70;99.90
25628;DHT22;40915;50.826;4.356;2023-02-01T21:14:35;8.60;99.90
25628;DHT22;40915;50.826;4.356;2023-02-01T21:17:00;8.60;99.90
25628;DHT22;40915;50.826;4.356;2023-02-01T21:19:26;8.50;99.90
25628;DHT22;40915;50.826;4.356;2023-02-01T21:21:52;8.60;99.90
25628;DHT22;40915;50.826;4.356;2023-02-01T21:24:18;8.60;99.90
25628;DHT22;40915;50.826;4.356;2023-02-01T21:26:44;8.70;99.90
25628;DHT22;40915;50.826;4.356;2023-02-01T21:29:12;8.70;99.90
25628;DHT22;40915;50.826;4.356;2023-02-01T21:31:38;8.60;99.90
25628;DHT22;40915;50.826;4.356;2023-02-01T21:34:04;8.60;99.90
25628;DHT22;40915;50.826;4.356;2023-02-01T21:36:31;8.60;99.90
25628;DHT22;40915;50.826;4.356;2023-02-01T21:39:01;8.60;99.90
25628;DHT22;40915;50.826;4.356;2023-02-01T21:41:31;8.60;99.90
25628;DHT22;40915;50.826;4.356;2023-02-01T21:44:16;8.60;99.90
25628;DHT22;40915;50.826;4.356;2023-02-01T21:46:42;8.50;99.90
25628;DHT22;40915;50.826;4.356;2023-02-01T21:49:08;8.50;99.90
25628;DHT22;40915;50.826;4.356;2023-02-01T21:51:34;8.50;99.90
25628;DHT22;40915;50.826;4.356;2023-02-01T21:54:02;8.50;99.90